Time;durP1;ratioP1;P1;durP2;ratioP2;P2;SDS_P1;SDS_P2;PMS_P1;PMS_P2;Temp;Humidity;BMP_temperature;BMP_pressure;BME280_temperature;BME280_humidity;BME280_pressure;Samples;Min_cycle;Max_cycle;Signal;HPM_P1;HPM_P2
2023/09/14 00:01:11;;;;;;;10.82;7.65;;;;;;;12.06;80.02;99800.50;5114422;27;20065;-69
2023/09/14 00:03:37;;;;;;;13.00;8.02;;;;;;;12.04;80.88;99797.94;5097453;27;20049;-71
2023/09/14 00:06:03;;;;;;;10.75;7.35;;;;;;;12.01;80.49;99798.16;5115374;27;20134;-71
2023/09/14 00:08:30;;;;;;;10.88;7.40;;;;;;;11.97;80.87;99802.88;5111804;27;20394;-74
2023/09/14 00:11:00;;;;;;;12.70;8.48;;;;;;;11.96;81.74;99793.16;5112133;27;20046;-73
2023/09/14 00:13:25;;;;;;;10.93;8.20;;;;;;;11.90;81.95;99790.97;5097241;27;20386;-76
2023/09/14 00:15:51;;;;;;;12.13;7.85;;;;;;;11.87;82.35;99791.19;5077099;27;20043;-75
2023/09/14 00:18:17;;;;;;;11.93;8.70;;;;;;;11.85;82.32;99782.41;5094920;27;20035;-72
2023/09/14 00:20:42;;;;;;;16.88;8.02;;;;;;;11.81;82.40;99813.00;5096499;27;20050;-74
2023/09/14 00:23:07;;;;;;;11.70;7.68;;;;;;;11.80;82.89;99822.00;5096569;27;20039;-73
2023/09/14 00:25:33;;;;;;;10.68;8.52;;;;;;;11.76;82.79;99796.47;5115553;27;20051;-75
2023/09/14 00:27:58;;;;;;;11.25;7.68;;;;;;;11.71;82.76;99795.06;5115618;27;20042;-76
2023/09/14 00:30:23;;;;;;;10.80;7.38;;;;;;;11.64;82.99;99789.31;5115801;27;20061;-75
2023/09/14 00:32:51;;;;;;;12.02;7.78;;;;;;;11.62;83.20;99797.44;5079815;27;20045;-75
2023/09/14 00:35:18;;;;;;;11.25;8.63;;;;;;;11.64;82.48;99789.31;5095704;27;20069;-75
2023/09/14 00:37:43;;;;;;;9.68;7.68;;;;;;;11.65;82.80;99785.69;5115847;27;20058;-74
2023/09/14 00:40:10;;;;;;;11.90;8.27;;;;;;;11.64;83.28;99794.66;5099187;27;20041;-74
2023/09/14 00:42:40;;;;;;;11.52;8.18;;;;;;;11.68;83.25;99790.81;5128121;27;20046;-74
2023/09/14 00:45:10;;;;;;;12.90;8.57;;;;;;;11.67;83.35;99777.56;5133103;27;20051;-74
2023/09/14 00:47:38;;;;;;;13.60;8.27;;;;;;;11.71;83.14;99800.41;5110446;27;20049;-74
2023/09/14 00:50:05;;;;;;;12.90;8.30;;;;;;;11.74;82.81;99790.34;5098952;27;20050;-74
2023/09/14 00:52:31;;;;;;;13.77;8.27;;;;;;;11.75;82.72;99812.56;5083543;27;20042;-75
2023/09/14 00:54:57;;;;;;;11.18;8.38;;;;;;;11.72;83.08;99792.31;5082550;27;20049;-72
2023/09/14 00:57:22;;;;;;;10.15;7.57;;;;;;;11.69;82.66;99776.50;5096900;27;20046;-74
2023/09/14 00:59:47;;;;;;;13.70;8.02;;;;;;;11.71;82.43;99785.25;5116732;27;20046;-74
2023/09/14 01:02:13;;;;;;;10.57;7.88;;;;;;;11.71;82.69;99784.41;5115445;27;20046;-73
2023/09/14 01:04:39;;;;;;;10.50;7.53;;;;;;;11.68;82.48;99806.84;5114591;27;20034;-74
2023/09/14 01:07:04;;;;;;;11.25;8.40;;;;;;;11.69;82.74;99797.00;5100530;27;20049;-74
2023/09/14 01:09:30;;;;;;;13.80;8.43;;;;;;;11.69;82.67;99792.53;5119298;27;20058;-76
2023/09/14 01:11:55;;;;;;;8.93;6.57;;;;;;;11.65;82.42;99791.88;5080907;27;20039;-74
2023/09/14 01:14:28;;;;;;;12.15;7.70;;;;;;;11.62;82.96;99792.09;5080424;27;20042;-73
2023/09/14 01:16:59;;;;;;;9.43;6.75;;;;;;;11.57;82.49;99804.09;5100722;27;20067;-72
2023/09/14 01:19:30;;;;;;;10.80;7.53;;;;;;;11.55;83.41;99790.84;5118296;27;20050;-73
2023/09/14 01:22:10;;;;;;;11.32;8.23;;;;;;;11.54;83.49;99794.47;5098578;27;20042;-71
2023/09/14 01:24:36;;;;;;;13.68;8.57;;;;;;;11.42;83.04;99790.03;5118363;27;20050;-72
2023/09/14 01:27:03;;;;;;;12.75;7.95;;;;;;;11.38;83.81;99803.72;5086093;27;20035;-73
2023/09/14 01:29:28;;;;;;;16.25;8.25;;;;;;;11.34;83.60;99799.56;5118812;27;20046;-73
2023/09/14 01:31:54;;;;;;;14.85;8.13;;;;;;;11.29;84.12;99800.75;5069768;27;20047;-73
2023/09/14 01:34:19;;;;;;;11.85;8.05;;;;;;;11.22;84.08;99794.16;5097702;27;20043;-74
2023/09/14 01:36:58;;;;;;;11.30;7.75;;;;;;;11.26;84.93;99797.47;5118285;27;20046;-72
2023/09/14 01:39:25;;;;;;;16.58;7.45;;;;;;;11.16;84.69;99796.41;5100019;27;20035;-74
2023/09/14 01:41:54;;;;;;;9.55;6.93;;;;;;;11.12;84.73;99806.44;5082262;27;20046;-74
2023/09/14 01:44:26;;;;;;;8.98;7.53;;;;;;;11.12;84.39;99803.78;5096869;27;20050;-73
2023/09/14 01:46:51;;;;;;;12.68;7.53;;;;;;;11.09;84.52;99797.78;5099902;27;20045;-74
2023/09/14 01:49:17;;;;;;;11.02;7.93;;;;;;;11.07;84.81;99784.56;5118390;27;20043;-73
2023/09/14 01:51:42;;;;;;;14.50;8.27;;;;;;;11.04;85.77;99790.13;5118244;27;20047;-75
2023/09/14 01:54:07;;;;;;;11.25;7.22;;;;;;;11.04;85.69;99799.97;5118426;27;20051;-74
2023/09/14 01:56:32;;;;;;;14.95;8.77;;;;;;;11.03;85.77;99803.59;5096996;27;20389;-74
2023/09/14 01:58:58;;;;;;;11.43;7.75;;;;;;;11.01;86.20;99801.03;5083068;27;20042;-73
2023/09/14 02:01:23;;;;;;;12.63;8.63;;;;;;;10.99;85.94;99800.28;5100074;27;20043;-75
2023/09/14 02:03:48;;;;;;;12.63;8.00;;;;;;;10.97;86.02;99799.53;5099623;27;20042;-73
2023/09/14 02:06:13;;;;;;;13.10;8.60;;;;;;;10.96;86.11;99802.28;5117871;27;20061;-75
2023/09/14 02:08:38;;;;;;;12.95;7.82;;;;;;;10.94;86.14;99791.75;5118115;27;20069;-76
2023/09/14 02:11:03;;;;;;;15.43;9.70;;;;;;;10.90;85.98;99814.25;5086348;27;20524;-75
2023/09/14 02:13:29;;;;;;;13.30;8.82;;;;;;;10.88;86.32;99787.69;5099734;27;20512;-75
2023/09/14 02:15:54;;;;;;;14.50;8.30;;;;;;;10.86;86.10;99786.94;5099475;27;20039;-78
2023/09/14 02:18:19;;;;;;;10.50;7.65;;;;;;;10.82;86.72;99837.94;5099623;27;20497;-75
2023/09/14 02:20:44;;;;;;;11.88;7.93;;;;;;;10.82;86.40;99806.81;5099405;27;20128;-75
2023/09/14 02:23:10;;;;;;;14.57;8.27;;;;;;;10.80;86.54;99808.72;5099431;27;20531;-74
2023/09/14 02:25:35;;;;;;;11.77;7.25;;;;;;;10.77;86.78;99830.25;5099080;27;20120;-72
2023/09/14 02:28:02;;;;;;;14.00;8.50;;;;;;;10.74;86.80;99789.59;5098359;27;20042;-73
2023/09/14 02:30:27;;;;;;;10.68;8.20;;;;;;;10.69;87.26;99811.28;5099438;27;20955;-73
2023/09/14 02:32:52;;;;;;;13.88;7.85;;;;;;;10.67;87.83;99796.34;5099142;27;20057;-73
2023/09/14 02:35:17;;;;;;;11.45;7.88;;;;;;;10.63;87.59;99795.69;5115522;27;20047;-75
2023/09/14 02:37:44;;;;;;;12.13;8.10;;;;;;;10.62;87.69;99793.13;5098881;27;20046;-73
2023/09/14 02:40:09;;;;;;;12.43;8.07;;;;;;;10.59;87.54;99804.88;5095409;27;20501;-74
2023/09/14 02:42:37;;;;;;;14.50;7.93;;;;;;;10.58;87.68;99802.31;5081597;27;20559;-74
2023/09/14 02:45:02;;;;;;;10.02;7.43;;;;;;;10.57;88.09;99797.94;5117478;27;20097;-71
2023/09/14 02:47:28;;;;;;;11.88;8.27;;;;;;;10.54;87.45;99801.66;5117443;27;20046;-72
2023/09/14 02:49:53;;;;;;;11.98;8.07;;;;;;;10.51;88.11;99792.06;5098722;27;20038;-73
2023/09/14 02:52:18;;;;;;;11.70;8.70;;;;;;;10.48;88.07;99791.44;5117111;27;20117;-72
2023/09/14 02:54:43;;;;;;;12.82;9.23;;;;;;;10.49;88.31;99804.66;5081829;27;20034;-73
2023/09/14 02:57:08;;;;;;;15.93;8.68;;;;;;;10.53;88.27;99799.94;5081291;27;20050;-72
2023/09/14 02:59:34;;;;;;;13.07;8.45;;;;;;;10.53;88.39;99800.81;5096541;27;20030;-74
2023/09/14 03:01:59;;;;;;;12.02;8.00;;;;;;;10.52;88.42;99815.09;5117570;27;20058;-74
2023/09/14 03:04:25;;;;;;;12.60;8.48;;;;;;;10.53;88.56;99816.81;5098166;27;20039;-73
2023/09/14 03:06:51;;;;;;;11.65;8.23;;;;;;;10.53;88.59;99805.28;5117309;27;20065;-70
2023/09/14 03:09:16;;;;;;;15.07;8.25;;;;;;;10.52;88.57;99809.75;5098199;27;20058;-70
2023/09/14 03:11:41;;;;;;;11.50;8.57;;;;;;;10.51;88.45;99796.53;5098286;27;20047;-70
2023/09/14 03:14:07;;;;;;;12.50;8.77;;;;;;;10.51;88.13;99802.72;5097730;27;20031;-72
2023/09/14 03:16:32;;;;;;;14.05;8.60;;;;;;;10.53;88.42;99808.81;5098405;27;20046;-70
2023/09/14 03:18:57;;;;;;;13.07;8.90;;;;;;;10.57;88.73;99805.94;5080714;27;20138;-70
2023/09/14 03:21:26;;;;;;;16.15;8.98;;;;;;;10.61;88.30;99812.78;5080848;27;20049;-69
2023/09/14 03:23:52;;;;;;;11.93;8.00;;;;;;;10.66;88.25;99805.28;5098040;27;20053;-69
2023/09/14 03:26:18;;;;;;;14.52;8.90;;;;;;;10.72;88.13;99810.22;5080672;27;20485;-69
2023/09/14 03:28:43;;;;;;;12.27;8.90;;;;;;;10.80;87.77;99797.19;5116069;27;20409;-68
2023/09/14 03:31:09;;;;;;;14.00;9.20;;;;;;;10.91;87.43;99805.31;5096132;27;20042;-71
2023/09/14 03:33:35;;;;;;;12.50;7.95;;;;;;;11.01;87.78;99811.69;5080797;27;20585;-70
2023/09/14 03:36:01;;;;;;;12.05;7.90;;;;;;;11.12;87.33;99825.13;5094719;27;20053;-71
2023/09/14 03:38:29;;;;;;;13.93;8.27;;;;;;;11.26;86.19;99811.66;5081012;27;20043;-72
2023/09/14 03:40:54;;;;;;;10.93;7.38;;;;;;;11.37;86.07;99818.03;5099127;27;20038;-73
2023/09/14 03:43:19;;;;;;;16.80;8.70;;;;;;;11.46;85.19;99812.03;5117117;27;20042;-74
2023/09/14 03:45:44;;;;;;;13.25;8.15;;;;;;;11.54;85.05;99806.97;5117342;27;20050;-74
2023/09/14 03:48:09;;;;;;;11.55;8.02;;;;;;;11.64;83.90;99800.84;5116759;27;20058;-74
2023/09/14 03:50:34;;;;;;;13.93;8.55;;;;;;;11.76;83.33;99807.16;5098087;27;20046;-74
2023/09/14 03:53:01;;;;;;;14.07;9.13;;;;;;;11.85;82.80;99819.81;5116951;27;20042;-74
2023/09/14 03:55:26;;;;;;;16.08;8.88;;;;;;;11.98;82.48;99793.03;5098468;27;20051;-73
2023/09/14 03:57:52;;;;;;;11.90;8.60;;;;;;;12.12;82.26;99811.56;5098377;27;20409;-74
2023/09/14 04:00:17;;;;;;;13.70;9.27;;;;;;;12.28;81.78;99801.44;5098126;27;20039;-74
2023/09/14 04:02:43;;;;;;;13.10;7.97;;;;;;;12.43;81.11;99815.44;5069197;27;20039;-74
2023/09/14 04:05:16;;;;;;;11.05;8.05;;;;;;;12.61;80.16;99823.91;5090403;27;20042;-74
2023/09/14 04:07:43;;;;;;;11.15;8.27;;;;;;;12.75;79.63;99798.75;5060908;27;20051;-74
2023/09/14 04:10:11;;;;;;;15.10;8.35;;;;;;;12.89;79.21;99763.72;5095447;27;20054;-74
2023/09/14 04:12:42;;;;;;;10.48;7.15;;;;;;;13.06;78.33;99798.06;5099529;27;20053;-74
2023/09/14 04:15:08;;;;;;;14.60;9.05;;;;;;;13.27;77.61;99807.06;5116027;27;20046;-73
2023/09/14 04:17:34;;;;;;;15.80;8.68;;;;;;;13.51;77.11;99809.63;5116607;27;20073;-74
2023/09/14 04:20:09;;;;;;;17.33;9.57;;;;;;;13.75;76.43;99822.84;5081017;27;20050;-74
2023/09/14 04:22:35;;;;;;;13.98;9.40;;;;;;;14.00;75.35;99805.56;5097866;27;20409;-74
2023/09/14 04:25:00;;;;;;;14.23;8.68;;;;;;;14.20;73.64;99799.41;5080659;27;20049;-74
2023/09/14 04:27:25;;;;;;;14.63;9.45;;;;;;;14.34;72.85;99793.72;5116975;27;20105;-74
2023/09/14 04:29:50;;;;;;;20.35;9.43;;;;;;;14.48;71.88;99792.59;5098495;27;20051;-75
2023/09/14 04:32:15;;;;;;;15.10;8.57;;;;;;;14.58;71.42;99789.97;5098203;27;20847;-75
2023/09/14 04:34:40;;;;;;;11.55;8.82;;;;;;;14.68;71.32;99797.09;5098560;27;20500;-74
2023/09/14 04:37:05;;;;;;;16.60;9.30;;;;;;;14.78;70.95;99797.19;5081381;27;20042;-75
2023/09/14 04:39:31;;;;;;;13.93;8.50;;;;;;;14.88;70.36;99796.25;5084027;27;20042;-74
2023/09/14 04:41:57;;;;;;;13.40;8.80;;;;;;;15.01;70.29;99795.19;5101882;27;20057;-75
2023/09/14 04:44:22;;;;;;;12.48;9.27;;;;;;;15.17;70.11;99787.47;5102665;27;20050;-75
2023/09/14 04:46:48;;;;;;;12.82;9.77;;;;;;;15.32;69.16;99785.25;5102633;27;20038;-76
2023/09/14 04:49:13;;;;;;;12.80;9.82;;;;;;;15.45;68.23;99785.88;5103507;27;20046;-75
2023/09/14 04:51:38;;;;;;;14.65;9.48;;;;;;;15.58;67.91;99760.47;5085871;27;20057;-74
2023/09/14 04:54:03;;;;;;;11.95;8.93;;;;;;;15.76;68.24;99784.84;5085167;27;20115;-75
2023/09/14 04:56:29;;;;;;;16.85;9.00;;;;;;;15.96;68.55;99785.72;5102174;27;20522;-76
2023/09/14 04:58:54;;;;;;;13.18;10.00;;;;;;;16.13;67.64;99787.72;5085254;27;20778;-76
2023/09/14 05:01:19;;;;;;;12.32;8.98;;;;;;;16.40;67.15;99767.28;5102402;27;20523;-75
2023/09/14 05:03:44;;;;;;;14.10;8.80;;;;;;;16.67;65.71;99786.28;5102512;27;20038;-74
2023/09/14 05:06:10;;;;;;;12.80;8.93;;;;;;;16.87;64.51;99781.69;5120265;27;20042;-76
2023/09/14 05:08:35;;;;;;;18.40;9.25;;;;;;;16.89;62.53;99785.94;5097839;27;20489;-77
2023/09/14 05:11:03;;;;;;;11.25;9.52;;;;;;;16.92;62.40;99782.97;5098671;27;20043;-71
2023/09/14 05:13:29;;;;;;;11.77;8.77;;;;;;;17.04;62.79;99789.84;5097205;27;20540;-72
2023/09/14 05:15:54;;;;;;;11.48;9.18;;;;;;;17.16;62.24;99809.34;5097128;27;20043;-72
2023/09/14 05:18:25;;;;;;;15.73;9.27;;;;;;;17.21;61.03;99779.28;5097405;27;20797;-71
2023/09/14 05:20:50;;;;;;;13.88;9.13;;;;;;;17.52;61.65;99779.84;5097271;27;20046;-71
2023/09/14 05:23:16;;;;;;;11.23;8.32;;;;;;;17.73;60.54;99775.91;5097210;27;20050;-72
2023/09/14 05:25:41;;;;;;;11.07;7.65;;;;;;;17.80;59.77;99781.56;5097099;27;20042;-70
2023/09/14 05:28:08;;;;;;;15.35;8.88;;;;;;;17.75;59.40;99795.47;5096800;27;20150;-71
2023/09/14 05:30:35;;;;;;;12.82;8.55;;;;;;;17.84;59.06;99774.84;5096784;27;20035;-71
2023/09/14 05:33:00;;;;;;;17.23;8.52;;;;;;;18.10;58.89;99767.69;5096925;27;20073;-71
2023/09/14 05:35:26;;;;;;;11.60;8.50;;;;;;;18.73;57.88;99777.53;5079772;27;20039;-71
2023/09/14 05:37:51;;;;;;;11.40;8.45;;;;;;;19.50;56.02;99790.13;5096798;27;20047;-72
2023/09/14 05:40:17;;;;;;;10.77;8.10;;;;;;;19.94;54.57;99751.03;5096742;27;20042;-71
2023/09/14 05:42:42;;;;;;;14.75;8.27;;;;;;;20.10;53.36;99776.41;5096818;27;20043;-71
2023/09/14 05:45:10;;;;;;;15.45;9.35;;;;;;;20.01;52.92;99783.66;5097689;27;20042;-74
2023/09/14 05:47:36;;;;;;;13.23;8.23;;;;;;;19.98;52.64;99766.94;5097899;27;20054;-72
2023/09/14 05:50:03;;;;;;;12.50;7.68;;;;;;;20.44;52.08;99768.16;5095760;27;20046;-71
2023/09/14 05:52:30;;;;;;;12.48;7.70;;;;;;;21.69;50.78;99776.50;5079056;27;20047;-71
2023/09/14 05:54:56;;;;;;;15.60;7.57;;;;;;;22.89;47.12;99764.94;5096749;27;20050;-70
2023/09/14 05:57:21;;;;;;;13.73;7.45;;;;;;;23.75;44.18;99777.88;5096395;27;20049;-70
2023/09/14 05:59:46;;;;;;;10.93;7.30;;;;;;;24.63;42.63;99759.50;5096331;27;20035;-71
2023/09/14 06:02:11;;;;;;;11.02;7.43;;;;;;;25.49;40.68;99752.75;5096615;27;20043;-71
2023/09/14 06:04:37;;;;;;;10.23;7.95;;;;;;;25.83;39.48;99749.16;5096163;27;20043;-72
2023/09/14 06:07:02;;;;;;;9.95;7.20;;;;;;;26.06;38.81;99763.28;5096688;27;20069;-72
2023/09/14 06:09:32;;;;;;;11.05;7.75;;;;;;;26.32;38.20;99755.16;5099428;27;20042;-71
2023/09/14 06:12:01;;;;;;;12.10;7.40;;;;;;;26.39;37.11;99763.38;5098964;27;20097;-71
2023/09/14 06:14:26;;;;;;;18.02;7.93;;;;;;;26.64;36.92;99744.44;5099505;27;20063;-71
2023/09/14 06:16:52;;;;;;;8.90;6.80;;;;;;;27.13;35.98;99754.94;5117688;27;20038;-71
2023/09/14 06:19:17;;;;;;;10.40;7.65;;;;;;;27.51;34.30;99749.56;5117600;27;20047;-71
2023/09/14 06:21:42;;;;;;;11.23;6.93;;;;;;;28.12;34.29;99746.31;5117505;27;20030;-70
2023/09/14 06:24:09;;;;;;;13.15;7.32;;;;;;;28.81;33.04;99745.41;5099263;27;20409;-72
2023/09/14 06:26:34;;;;;;;11.10;8.13;;;;;;;29.32;32.39;99741.53;5117386;27;20049;-72
2023/09/14 06:29:00;;;;;;;12.63;7.03;;;;;;;29.66;30.74;99751.09;5121136;27;20057;-72
2023/09/14 06:31:26;;;;;;;17.33;7.60;;;;;;;29.81;31.23;99735.84;5108455;27;20046;-71
2023/09/14 06:33:51;;;;;;;10.73;7.60;;;;;;;30.25;31.08;99744.75;5107230;27;20042;-71
2023/09/14 06:36:20;;;;;;;12.60;8.35;;;;;;;30.59;30.05;99735.78;5099099;27;20054;-72
2023/09/14 06:38:46;;;;;;;10.05;7.57;;;;;;;31.36;29.72;99752.22;5095616;27;20535;-70
2023/09/14 06:41:12;;;;;;;11.43;7.38;;;;;;;32.13;28.34;99735.31;5080594;27;20527;-71
2023/09/14 06:43:40;;;;;;;12.45;7.40;;;;;;;32.74;27.14;99727.03;5078882;27;20051;-71
2023/09/14 06:46:06;;;;;;;13.57;6.95;;;;;;;33.02;26.33;99722.50;5060717;27;20051;-71
2023/09/14 06:48:32;;;;;;;9.82;7.32;;;;;;;33.12;26.40;99717.97;5099434;27;20049;-72
2023/09/14 06:50:57;;;;;;;8.52;5.80;;;;;;;33.55;26.28;99721.88;5117182;27;20043;-71
2023/09/14 06:53:22;;;;;;;9.23;7.43;;;;;;;34.14;25.65;99741.38;5098498;27;20053;-71
2023/09/14 06:55:47;;;;;;;9.82;7.03;;;;;;;34.60;23.95;99726.88;5117178;27;20039;-73
2023/09/14 06:58:14;;;;;;;7.93;6.63;;;;;;;34.62;23.76;99731.31;5117328;27;20128;-72
2023/09/14 07:00:39;;;;;;;7.43;6.65;;;;;;;34.30;23.78;99717.50;5116956;27;20049;-72
2023/09/14 07:03:04;;;;;;;8.93;7.15;;;;;;;34.45;23.47;99715.69;5116051;27;20157;-71
2023/09/14 07:05:30;;;;;;;8.07;6.85;;;;;;;34.28;23.83;99719.69;5117059;27;20030;-71
2023/09/14 07:07:56;;;;;;;7.35;6.60;;;;;;;34.39;23.70;99713.97;5104360;27;20050;-74
2023/09/14 07:10:21;;;;;;;7.93;6.40;;;;;;;34.65;23.31;99720.56;5133996;27;20038;-74
2023/09/14 07:12:46;;;;;;;8.32;6.18;;;;;;;35.37;23.37;99710.81;5129489;27;20404;-76
2023/09/14 07:15:11;;;;;;;7.78;6.40;;;;;;;36.20;21.94;99709.69;5083133;27;20047;-74
2023/09/14 07:17:37;;;;;;;7.80;6.60;;;;;;;36.59;21.52;99700.84;5119332;27;20038;-75
2023/09/14 07:20:04;;;;;;;9.88;6.43;;;;;;;36.95;21.24;99710.00;5119177;27;20039;-76
2023/09/14 07:22:29;;;;;;;8.90;6.60;;;;;;;37.13;20.95;99722.47;5099876;27;20069;-76
2023/09/14 07:24:55;;;;;;;8.30;6.65;;;;;;;37.09;20.76;99700.78;5099467;27;20515;-75
2023/09/14 07:27:22;;;;;;;7.13;6.43;;;;;;;36.80;20.23;99715.59;5082119;27;20057;-77
2023/09/14 07:29:47;;;;;;;8.65;6.22;;;;;;;35.96;20.64;99714.09;5099142;27;20046;-77
2023/09/14 07:32:13;;;;;;;6.78;5.63;;;;;;;35.98;20.85;99709.94;5117387;27;20046;-77
2023/09/14 07:34:38;;;;;;;7.25;5.70;;;;;;;35.60;20.82;99710.34;5117643;27;20038;-75
2023/09/14 07:37:03;;;;;;;9.00;5.90;;;;;;;35.46;21.39;99704.47;5117510;27;20047;-76
2023/09/14 07:39:28;;;;;;;7.15;6.00;;;;;;;35.81;21.02;99709.34;5095166;27;20039;-76
2023/09/14 07:41:55;;;;;;;9.45;6.95;;;;;;;35.77;20.68;99707.41;5097130;27;20062;-75
2023/09/14 07:44:21;;;;;;;11.07;6.22;;;;;;;35.47;21.11;99700.59;5095785;27;20035;-76
2023/09/14 07:46:46;;;;;;;6.32;5.70;;;;;;;36.19;20.62;99696.94;5095541;27;20062;-76
2023/09/14 07:49:11;;;;;;;7.93;5.95;;;;;;;37.22;20.05;99715.25;5095853;27;20386;-76
2023/09/14 07:51:36;;;;;;;10.52;7.22;;;;;;;36.60;19.65;99694.16;5095898;27;20062;-77
2023/09/14 07:54:01;;;;;;;8.27;6.20;;;;;;;36.33;20.22;99706.41;5098377;27;20039;-78
2023/09/14 07:56:27;;;;;;;7.28;6.40;;;;;;;37.40;19.97;99697.94;5097227;27;20043;-79
2023/09/14 07:58:56;;;;;;;10.48;6.60;;;;;;;38.81;18.86;99682.28;5077468;27;20047;-76
2023/09/14 08:01:21;;;;;;;9.32;6.40;;;;;;;39.64;17.92;99681.03;5096408;27;20066;-75
2023/09/14 08:03:46;;;;;;;9.55;6.63;;;;;;;40.01;17.76;99690.59;5115001;27;20034;-75
2023/09/14 08:06:11;;;;;;;10.65;7.28;;;;;;;40.59;17.21;99679.88;5117886;27;20042;-75
2023/09/14 08:08:37;;;;;;;8.02;6.38;;;;;;;40.16;17.25;99674.44;5097481;27;20520;-76
2023/09/14 08:11:02;;;;;;;7.25;6.55;;;;;;;39.70;17.31;99670.66;5116865;27;20049;-75
2023/09/14 08:13:27;;;;;;;8.63;6.90;;;;;;;39.59;17.47;99677.50;5097974;27;20085;-74
2023/09/14 08:15:52;;;;;;;8.50;6.47;;;;;;;39.28;17.72;99668.69;5099492;27;20045;-76
2023/09/14 08:18:19;;;;;;;7.45;6.65;;;;;;;39.38;17.49;99665.75;5116810;27;20043;-76
2023/09/14 08:20:44;;;;;;;7.15;6.45;;;;;;;38.28;17.64;99656.25;5080278;27;20050;-75
2023/09/14 08:23:12;;;;;;;6.70;5.97;;;;;;;37.89;18.68;99669.34;5116628;27;20042;-75
2023/09/14 08:25:43;;;;;;;7.30;6.60;;;;;;;38.06;17.94;99681.72;5097943;27;20500;-76
2023/09/14 08:28:10;;;;;;;7.60;6.47;;;;;;;37.20;18.74;99662.69;5119203;27;20035;-76
2023/09/14 08:30:37;;;;;;;11.00;6.88;;;;;;;36.28;19.61;99659.19;5118435;27;20047;-76
2023/09/14 08:33:02;;;;;;;8.50;6.40;;;;;;;35.73;19.99;99670.16;5119111;27;20034;-75
2023/09/14 08:35:31;;;;;;;7.95;5.63;;;;;;;35.20;20.11;99669.41;5099435;27;20066;-77
2023/09/14 08:37:57;;;;;;;7.93;5.90;;;;;;;34.23;21.21;99668.69;5117453;27;20043;-76
2023/09/14 08:40:24;;;;;;;7.22;6.32;;;;;;;34.01;20.93;99654.09;5117247;27;20050;-76
2023/09/14 08:42:51;;;;;;;7.03;6.32;;;;;;;34.22;21.34;99672.53;5097803;27;20069;-75
2023/09/14 08:45:23;;;;;;;6.25;5.65;;;;;;;35.37;20.68;99675.59;5117661;27;20042;-77
2023/09/14 08:47:50;;;;;;;6.50;5.72;;;;;;;36.65;19.48;99652.50;5117338;27;20042;-75
2023/09/14 08:50:17;;;;;;;8.15;6.03;;;;;;;36.76;19.79;99654.19;5097999;27;20050;-76
2023/09/14 08:52:44;;;;;;;8.95;6.38;;;;;;;36.79;19.41;99653.63;5098417;27;20039;-75
2023/09/14 08:55:11;;;;;;;7.18;6.43;;;;;;;37.35;19.26;99654.31;5116770;27;20044;-75
2023/09/14 08:57:38;;;;;;;9.80;6.22;;;;;;;37.45;18.70;99642.31;5098297;27;20045;-75
2023/09/14 09:00:08;;;;;;;11.82;6.63;;;;;;;36.72;19.81;99661.41;5098508;27;20050;-76
2023/09/14 09:02:35;;;;;;;7.57;6.15;;;;;;;35.22;20.81;99643.06;5117575;27;20038;-75
2023/09/14 09:05:02;;;;;;;7.55;6.30;;;;;;;34.18;21.73;99635.44;5098850;27;20047;-76
2023/09/14 09:07:30;;;;;;;9.93;6.00;;;;;;;33.55;21.62;99638.94;5116304;27;20051;-75
2023/09/14 09:09:56;;;;;;;8.48;5.90;;;;;;;32.36;22.83;99633.97;5115585;27;20050;-77
2023/09/14 09:12:21;;;;;;;10.30;6.10;;;;;;;31.88;23.65;99639.16;5097235;27;20046;-76
2023/09/14 09:14:48;;;;;;;8.43;6.32;;;;;;;32.14;23.88;99648.72;5116626;27;20045;-75
2023/09/14 09:17:13;;;;;;;7.97;5.78;;;;;;;32.60;23.80;99642.06;5116190;27;20040;-75
2023/09/14 09:19:56;;;;;;;7.97;5.72;;;;;;;32.62;23.67;99629.63;5079977;27;20469;-76
2023/09/14 09:22:22;;;;;;;7.43;5.97;;;;;;;32.78;23.59;99645.38;5118050;27;20046;-75
2023/09/14 09:24:47;;;;;;;9.98;6.40;;;;;;;33.89;22.53;99623.81;5116971;27;20049;-75
2023/09/14 09:27:26;;;;;;;7.63;6.38;;;;;;;35.71;21.44;99626.06;5101780;27;20412;-76
2023/09/14 09:29:51;;;;;;;10.63;5.65;;;;;;;36.35;20.12;99618.09;5102167;27;20058;-76
2023/09/14 09:32:22;;;;;;;7.93;5.93;;;;;;;37.40;19.40;99614.50;5100881;27;20501;-76
2023/09/14 09:34:48;;;;;;;10.00;6.00;;;;;;;38.54;18.82;99603.13;5120476;27;20486;-75
2023/09/14 09:37:13;;;;;;;5.88;5.28;;;;;;;39.39;17.86;99615.25;5119774;27;20057;-75
2023/09/14 09:39:40;;;;;;;11.05;6.55;;;;;;;39.78;17.40;99614.97;5102035;27;20493;-77
2023/09/14 09:42:08;;;;;;;6.40;5.80;;;;;;;39.72;17.72;99602.22;5119862;27;20045;-75
2023/09/14 09:44:34;;;;;;;6.63;5.97;;;;;;;39.00;17.93;99597.91;5083257;27;20046;-76
2023/09/14 09:46:59;;;;;;;7.75;6.07;;;;;;;37.41;18.47;99602.25;5119299;27;20038;-74
2023/09/14 09:49:28;;;;;;;6.57;5.60;;;;;;;35.78;19.77;99601.69;5118838;27;20047;-75
2023/09/14 09:51:53;;;;;;;5.97;5.22;;;;;;;34.49;20.36;99608.00;5119367;27;20557;-76
2023/09/14 09:54:21;;;;;;;6.20;5.60;;;;;;;33.37;21.73;99595.06;5100270;27;20416;-77
2023/09/14 09:56:46;;;;;;;6.53;5.60;;;;;;;33.32;22.50;99604.13;5083753;27;20042;-75
2023/09/14 09:59:14;;;;;;;7.18;5.45;;;;;;;32.16;23.08;99605.19;5119083;27;20042;-74
2023/09/14 10:01:43;;;;;;;7.07;6.07;;;;;;;30.45;25.39;99609.66;5118449;27;20042;-73
2023/09/14 10:04:14;;;;;;;7.55;5.72;;;;;;;29.91;25.97;99606.94;5114607;27;20043;-71
2023/09/14 10:06:43;;;;;;;8.82;5.88;;;;;;;29.27;26.35;99604.91;5099521;27;20595;-72
2023/09/14 10:09:11;;;;;;;8.57;5.68;;;;;;;28.65;27.72;99595.09;5078631;27;20047;-72
2023/09/14 10:11:37;;;;;;;6.53;5.80;;;;;;;28.16;28.18;99607.75;5096498;27;20043;-73
2023/09/14 10:14:10;;;;;;;8.55;6.18;;;;;;;27.48;29.27;99604.84;5098171;27;20035;-73
2023/09/14 10:16:43;;;;;;;7.00;5.57;;;;;;;26.96;30.36;99617.75;5079069;27;20043;-73
2023/09/14 10:19:08;;;;;;;10.80;5.43;;;;;;;26.26;31.02;99589.25;5098136;27;20038;-73
2023/09/14 10:21:36;;;;;;;6.97;5.28;;;;;;;25.42;31.51;99602.59;5097725;27;20054;-74
2023/09/14 10:24:05;;;;;;;6.75;5.05;;;;;;;25.45;30.97;99599.47;5098878;27;20378;-75
2023/09/14 10:26:34;;;;;;;9.45;5.93;;;;;;;24.59;32.80;99607.28;5095984;27;20401;-73
2023/09/14 10:28:59;;;;;;;12.45;6.90;;;;;;;23.91;33.56;99602.53;5097684;27;20035;-73
2023/09/14 10:31:28;;;;;;;7.75;5.30;;;;;;;23.11;36.26;99606.28;5076784;27;20858;-73
2023/09/14 10:33:59;;;;;;;8.15;5.85;;;;;;;22.71;36.84;99604.03;5093012;27;20035;-74
2023/09/14 10:36:29;;;;;;;8.55;5.53;;;;;;;22.40;37.31;99601.53;5094253;27;20555;-72
2023/09/14 10:38:55;;;;;;;8.73;5.57;;;;;;;22.31;37.46;99608.06;5097772;27;20043;-72
2023/09/14 10:41:22;;;;;;;6.20;5.53;;;;;;;22.11;38.29;99617.78;5096982;27;20074;-73
2023/09/14 10:43:47;;;;;;;6.60;5.72;;;;;;;21.98;38.34;99597.53;5097019;27;20062;-73
2023/09/14 10:46:18;;;;;;;9.98;5.20;;;;;;;21.95;38.54;99610.59;5096688;27;20042;-71
2023/09/14 10:48:44;;;;;;;9.25;6.43;;;;;;;21.93;38.89;99627.06;5095543;27;20065;-71
2023/09/14 10:51:11;;;;;;;7.78;6.13;;;;;;;21.64;38.90;99606.13;5095549;27;20528;-72
2023/09/14 10:53:38;;;;;;;11.13;6.80;;;;;;;21.44;39.31;99598.63;5075387;28;20054;-72
2023/09/14 10:56:04;;;;;;;7.47;5.30;;;;;;;21.20;40.02;99605.06;5097231;27;20442;-71
2023/09/14 10:58:42;;;;;;;7.30;6.07;;;;;;;21.22;40.17;99606.53;5095457;27;20038;-72
2023/09/14 11:01:12;;;;;;;9.55;5.75;;;;;;;21.04;40.58;99608.66;5096753;27;20401;-71
2023/09/14 11:04:05;;;;;;;6.90;5.47;;;;;;;21.13;40.31;99602.16;5075760;27;20046;-71
2023/09/14 11:06:51;;;;;;;6.43;5.20;;;;;;;21.19;40.79;99590.66;5096743;27;20049;-72
2023/09/14 11:09:18;;;;;;;12.30;6.20;;;;;;;20.75;41.69;99605.75;5115537;27;20042;-68
2023/09/14 11:11:45;;;;;;;6.53;5.75;;;;;;;20.51;42.39;99612.09;5097686;27;20036;-71
2023/09/14 11:14:14;;;;;;;8.38;5.47;;;;;;;20.48;43.12;99610.59;5116848;27;20042;-70
2023/09/14 11:16:46;;;;;;;6.65;5.60;;;;;;;20.67;42.54;99609.31;5117042;27;20047;-70
2023/09/14 11:19:31;;;;;;;7.78;5.93;;;;;;;20.58;42.49;99596.84;5114253;27;20057;-70
2023/09/14 11:22:03;;;;;;;7.55;5.70;;;;;;;20.59;42.28;99599.38;5098255;27;20054;-70
2023/09/14 11:24:36;;;;;;;11.65;7.13;;;;;;;20.66;42.50;99605.78;5116339;27;20069;-70
2023/09/14 11:27:02;;;;;;;8.02;5.32;;;;;;;20.85;42.07;99579.28;5116433;27;20508;-69